Calvert City, KY

12:40 PM CDT on September 21, 2014 (GMT -0500)
Metropolis | Change Station
CLOSE
Current Station
Airport
Location: Metropolis,
Elevation: 384 ft
Nearby Weather Stations

Elev 384 ft 37.18 °N, 88.75 °W | Updated 25 minutes ago

Partly Cloudy
Partly Cloudy
79 °F
Feels Like 79 °F
N
12
Wind Variable Wind from WNW

Today
High -- | Low -- °F
--% Chance of Precip.
Yesterday
High -- | Low -- °F
Precip. -- in
6:40 AM 6:51 PM
Waning Crescent, 6% visible
Pressure 30.00 in
Visibility 10.0 miles
Clouds Clear
Dew Point 54 °F
Humidity 42%
Rainfall 0.03 in
Snow Depth Not available.
UV 8 out of 12
Pollen 7.60 out of 12
Air Quality Not available.
Flu Activity Not available.
METAR KM30 211715Z AUTO 29010KT 10SM CLR 26/12 A3000 RMK AO2 T02620122

More Conditions Fewer Conditions

Pressure 30.00 in
Visibility 10.0 miles
Clouds Clear
Dew Point 54 °F
Humidity 42%
Rainfall 0.03 in
Snow Depth Not available.
UV 8 out of 12
Pollen 7.60 out of 12
Air Quality Not available.
Flu Activity Not available.
METAR KM30 211715Z AUTO 29010KT 10SM CLR 26/12 A3000 RMK AO2 T02620122

More Conditions Fewer Conditions

10-Day Weather Forecast

Almanac

Astronomy

Sep. 21, 2014 Rise Set
Actual Time 6:40 AM CDT 6:51 PM CDT
Civil Twilight 6:14 AM CDT 7:17 PM CDT
Nautical Twilight 5:44 AM CDT 7:47 PM CDT
Astronomical Twilight 5:13 AM CDT 8:18 PM CDT
Moon 4:16 AM CDT 5:25 PM CDT
Length of Visible Light 13h 03m
Length of Day
12h 11m
Tomorrow will be 2m 21s shorter.
Waning Crescent, 6% of the Moon is Illuminated
Today
Waning Crescent
Sep 24
New
Oct 1
First Quarter
Oct 8
Full
Oct 15
Last Quarter

Today's Extremes

State Highs State Lows

Community

WunderPhotos

Upload Photos

1,755,199 photos uploaded!

WunderBlogs® & News

Nearby

Snow Depth

Station Depth Elevation
No new snow has been reported.

Earthquake Activity

City Distance Mag. Time & Date
No recent earthquake activity has been reported nearby.
Minimum magnitude displayed is 2.5.

Coastal Water Temperatures

Place Temperature
No Stations Reporting

Nearby Weather Stations